sensor_id;sensor_type;location;lat;lon;timestamp;pressure;altitude;pressure_sealevel;temperature;humidity
9738;BME280;4908;47.446;13.900;2024-01-15T00:00:20;91445.25;;;-8.60;100.00
9738;BME280;4908;47.446;13.900;2024-01-15T00:02:47;91445.84;;;-8.32;100.00
9738;BME280;4908;47.446;13.900;2024-01-15T00:05:14;91425.91;;;-8.54;100.00
9738;BME280;4908;47.446;13.900;2024-01-15T00:07:41;91419.63;;;-8.61;100.00
9738;BME280;4908;47.446;13.900;2024-01-15T00:10:08;91425.59;;;-8.52;100.00
9738;BME280;4908;47.446;13.900;2024-01-15T00:12:35;91413.25;;;-8.55;100.00
9738;BME280;4908;47.446;13.900;2024-01-15T00:15:03;91411.59;;;-8.43;100.00
9738;BME280;4908;47.446;13.900;2024-01-15T00:17:31;91413.78;;;-8.36;100.00
9738;BME280;4908;47.446;13.900;2024-01-15T00:19:59;91405.22;;;-8.45;100.00
9738;BME280;4908;47.446;13.900;2024-01-15T00:22:26;91397.88;;;-8.43;100.00
9738;BME280;4908;47.446;13.900;2024-01-15T00:24:53;91379.06;;;-8.49;100.00
9738;BME280;4908;47.446;13.900;2024-01-15T00:27:20;91376.13;;;-8.16;100.00
9738;BME280;4908;47.446;13.900;2024-01-15T00:29:47;91388.63;;;-8.18;100.00
9738;BME280;4908;47.446;13.900;2024-01-15T00:32:16;91382.53;;;-8.05;100.00
9738;BME280;4908;47.446;13.900;2024-01-15T00:34:44;91378.75;;;-7.99;100.00
9738;BME280;4908;47.446;13.900;2024-01-15T00:37:11;91401.56;;;-7.79;100.00
9738;BME280;4908;47.446;13.900;2024-01-15T00:39:38;91390.09;;;-7.87;100.00
9738;BME280;4908;47.446;13.900;2024-01-15T00:42:05;91376.66;;;-7.72;100.00
9738;BME280;4908;47.446;13.900;2024-01-15T00:44:32;91390.13;;;-7.53;100.00
9738;BME280;4908;47.446;13.900;2024-01-15T00:46:59;91381.69;;;-7.75;100.00
9738;BME280;4908;47.446;13.900;2024-01-15T00:49:27;91386.56;;;-7.82;100.00
9738;BME280;4908;47.446;13.900;2024-01-15T00:51:55;91385.38;;;-7.59;100.00
9738;BME280;4908;47.446;13.900;2024-01-15T00:54:22;91390.19;;;-8.00;100.00
9738;BME280;4908;47.446;13.900;2024-01-15T00:56:49;91383.44;;;-8.10;100.00
9738;BME280;4908;47.446;13.900;2024-01-15T00:59:16;91388.06;;;-7.98;100.00
9738;BME280;4908;47.446;13.900;2024-01-15T01:01:46;91368.53;;;-7.87;100.00
9738;BME280;4908;47.446;13.900;2024-01-15T01:04:13;91364.88;;;-7.86;100.00
9738;BME280;4908;47.446;13.900;2024-01-15T01:06:40;91369.09;;;-8.07;100.00
9738;BME280;4908;47.446;13.900;2024-01-15T01:09:08;91358.72;;;-8.24;100.00
9738;BME280;4908;47.446;13.900;2024-01-15T01:11:35;91362.97;;;-8.20;100.00
9738;BME280;4908;47.446;13.900;2024-01-15T01:14:02;91361.63;;;-8.00;100.00
9738;BME280;4908;47.446;13.900;2024-01-15T01:16:29;91351.41;;;-8.05;100.00
9738;BME280;4908;47.446;13.900;2024-01-15T01:18:59;91352.81;;;-7.82;100.00
9738;BME280;4908;47.446;13.900;2024-01-15T01:21:26;91352.34;;;-7.76;100.00
9738;BME280;4908;47.446;13.900;2024-01-15T01:23:53;91348.66;;;-8.00;100.00
9738;BME280;4908;47.446;13.900;2024-01-15T01:26:22;91357.78;;;-8.11;100.00
9738;BME280;4908;47.446;13.900;2024-01-15T01:28:49;91359.34;;;-8.10;100.00
9738;BME280;4908;47.446;13.900;2024-01-15T01:31:16;91350.31;;;-8.30;100.00
9738;BME280;4908;47.446;13.900;2024-01-15T01:33:43;91359.97;;;-8.53;100.00
9738;BME280;4908;47.446;13.900;2024-01-15T01:36:10;91355.03;;;-8.71;100.00
9738;BME280;4908;47.446;13.900;2024-01-15T01:38:37;91360.28;;;-8.63;100.00
9738;BME280;4908;47.446;13.900;2024-01-15T01:41:05;91346.69;;;-8.60;100.00
9738;BME280;4908;47.446;13.900;2024-01-15T01:43:33;91353.44;;;-8.59;100.00
9738;BME280;4908;47.446;13.900;2024-01-15T01:46:01;91352.97;;;-8.61;100.00
9738;BME280;4908;47.446;13.900;2024-01-15T01:48:29;91347.88;;;-8.66;100.00
9738;BME280;4908;47.446;13.900;2024-01-15T01:50:58;91355.47;;;-8.78;100.00
9738;BME280;4908;47.446;13.900;2024-01-15T01:53:26;91343.31;;;-8.60;100.00
9738;BME280;4908;47.446;13.900;2024-01-15T01:55:54;91348.50;;;-8.69;100.00
9738;BME280;4908;47.446;13.900;2024-01-15T01:58:23;91338.06;;;-8.38;100.00
9738;BME280;4908;47.446;13.900;2024-01-15T02:00:53;91324.94;;;-8.33;100.00
9738;BME280;4908;47.446;13.900;2024-01-15T02:03:20;91331.78;;;-8.46;100.00
9738;BME280;4908;47.446;13.900;2024-01-15T02:05:48;91343.75;;;-8.75;100.00
9738;BME280;4908;47.446;13.900;2024-01-15T02:08:16;91330.22;;;-8.94;100.00
9738;BME280;4908;47.446;13.900;2024-01-15T02:10:43;91339.50;;;-9.02;100.00
9738;BME280;4908;47.446;13.900;2024-01-15T02:13:10;91331.97;;;-9.12;100.00
9738;BME280;4908;47.446;13.900;2024-01-15T02:15:37;91322.72;;;-9.04;100.00
9738;BME280;4908;47.446;13.900;2024-01-15T02:18:06;91333.16;;;-8.87;100.00
9738;BME280;4908;47.446;13.900;2024-01-15T02:20:34;91336.19;;;-8.94;100.00
9738;BME280;4908;47.446;13.900;2024-01-15T02:23:09;91328.03;;;-9.09;100.00
9738;BME280;4908;47.446;13.900;2024-01-15T02:25:38;91335.31;;;-8.81;100.00
9738;BME280;4908;47.446;13.900;2024-01-15T02:28:06;91322.31;;;-8.59;100.00
9738;BME280;4908;47.446;13.900;2024-01-15T02:30:37;91314.25;;;-8.88;100.00
9738;BME280;4908;47.446;13.900;2024-01-15T02:33:05;91327.84;;;-9.13;100.00
9738;BME280;4908;47.446;13.900;2024-01-15T02:35:32;91320.34;;;-8.92;100.00
9738;BME280;4908;47.446;13.900;2024-01-15T02:37:59;91319.09;;;-8.95;100.00
9738;BME280;4908;47.446;13.900;2024-01-15T02:40:28;91321.47;;;-8.76;100.00
9738;BME280;4908;47.446;13.900;2024-01-15T02:42:55;91321.91;;;-8.83;100.00
9738;BME280;4908;47.446;13.900;2024-01-15T02:45:22;91323.19;;;-8.55;100.00
9738;BME280;4908;47.446;13.900;2024-01-15T02:47:48;91320.53;;;-8.33;100.00
9738;BME280;4908;47.446;13.900;2024-01-15T02:50:16;91319.13;;;-8.39;100.00
9738;BME280;4908;47.446;13.900;2024-01-15T02:52:43;91311.22;;;-8.34;100.00
9738;BME280;4908;47.446;13.900;2024-01-15T02:55:10;91311.03;;;-8.46;100.00
9738;BME280;4908;47.446;13.900;2024-01-15T02:57:38;91298.16;;;-8.68;100.00
9738;BME280;4908;47.446;13.900;2024-01-15T03:00:06;91310.69;;;-8.61;100.00
9738;BME280;4908;47.446;13.900;2024-01-15T03:02:36;91298.16;;;-8.68;100.00
9738;BME280;4908;47.446;13.900;2024-01-15T03:05:05;91297.91;;;-8.41;100.00
9738;BME280;4908;47.446;13.900;2024-01-15T03:07:32;91301.91;;;-8.35;100.00
9738;BME280;4908;47.446;13.900;2024-01-15T03:09:59;91304.59;;;-8.57;100.00
9738;BME280;4908;47.446;13.900;2024-01-15T03:12:26;91288.28;;;-8.57;100.00
9738;BME280;4908;47.446;13.900;2024-01-15T03:14:54;91295.44;;;-8.54;100.00
9738;BME280;4908;47.446;13.900;2024-01-15T03:17:21;91308.25;;;-8.58;100.00
9738;BME280;4908;47.446;13.900;2024-01-15T03:19:49;91310.66;;;-8.70;100.00
9738;BME280;4908;47.446;13.900;2024-01-15T03:22:16;91306.75;;;-8.59;100.00
9738;BME280;4908;47.446;13.900;2024-01-15T03:24:43;91303.94;;;-8.71;100.00
9738;BME280;4908;47.446;13.900;2024-01-15T03:27:10;91316.31;;;-8.68;100.00
9738;BME280;4908;47.446;13.900;2024-01-15T03:29:37;91315.88;;;-8.53;100.00
9738;BME280;4908;47.446;13.900;2024-01-15T03:32:06;91297.88;;;-8.58;100.00
9738;BME280;4908;47.446;13.900;2024-01-15T03:34:33;91307.09;;;-8.35;100.00
9738;BME280;4908;47.446;13.900;2024-01-15T03:37:00;91304.59;;;-8.57;100.00
9738;BME280;4908;47.446;13.900;2024-01-15T03:39:27;91315.56;;;-8.60;100.00
9738;BME280;4908;47.446;13.900;2024-01-15T03:41:54;91311.00;;;-8.63;100.00
9738;BME280;4908;47.446;13.900;2024-01-15T03:44:21;91307.38;;;-8.45;100.00
9738;BME280;4908;47.446;13.900;2024-01-15T03:46:48;91299.03;;;-8.24;100.00
9738;BME280;4908;47.446;13.900;2024-01-15T03:49:16;91312.44;;;-8.40;100.00
9738;BME280;4908;47.446;13.900;2024-01-15T03:51:43;91305.84;;;-8.46;100.00
9738;BME280;4908;47.446;13.900;2024-01-15T03:54:10;91298.00;;;-8.71;100.00
9738;BME280;4908;47.446;13.900;2024-01-15T03:56:37;91302.56;;;-8.77;100.00
9738;BME280;4908;47.446;13.900;2024-01-15T03:59:04;91311.25;;;-8.73;100.00
9738;BME280;4908;47.446;13.900;2024-01-15T04:01:31;91306.75;;;-8.59;100.00
9738;BME280;4908;47.446;13.900;2024-01-15T04:03:58;91309.34;;;-8.59;100.00
9738;BME280;4908;47.446;13.900;2024-01-15T04:06:26;91309.97;;;-8.53;100.00
9738;BME280;4908;47.446;13.900;2024-01-15T04:08:53;91305.22;;;-8.51;100.00
9738;BME280;4908;47.446;13.900;2024-01-15T04:11:20;91312.16;;;-8.30;100.00
9738;BME280;4908;47.446;13.900;2024-01-15T04:13:48;91314.69;;;-8.47;100.00
9738;BME280;4908;47.446;13.900;2024-01-15T04:16:15;91329.53;;;-8.78;100.00
9738;BME280;4908;47.446;13.900;2024-01-15T04:18:42;91323.50;;;-8.65;100.00
9738;BME280;4908;47.446;13.900;2024-01-15T04:21:09;91316.81;;;-8.57;100.00
9738;BME280;4908;47.446;13.900;2024-01-15T04:23:39;91322.69;;;-8.26;100.00
9738;BME280;4908;47.446;13.900;2024-01-15T04:26:06;91322.97;;;-8.36;100.00
9738;BME280;4908;47.446;13.900;2024-01-15T04:28:33;91331.84;;;-8.29;100.00
9738;BME280;4908;47.446;13.900;2024-01-15T04:31:00;91326.06;;;-8.08;100.00
9738;BME280;4908;47.446;13.900;2024-01-15T04:33:27;91319.94;;;-8.12;100.00
9738;BME280;4908;47.446;13.900;2024-01-15T04:35:53;91323.00;;;-8.02;100.00
9738;BME280;4908;47.446;13.900;2024-01-15T04:38:21;91319.31;;;-8.09;100.00
9738;BME280;4908;47.446;13.900;2024-01-15T04:40:49;91334.75;;;-7.96;100.00
9738;BME280;4908;47.446;13.900;2024-01-15T04:43:16;91333.09;;;-7.83;100.00
9738;BME280;4908;47.446;13.900;2024-01-15T04:45:43;91323.91;;;-8.06;100.00
9738;BME280;4908;47.446;13.900;2024-01-15T04:48:10;91326.78;;;-8.08;100.00
9738;BME280;4908;47.446;13.900;2024-01-15T04:50:37;91346.41;;;-7.76;100.00
9738;BME280;4908;47.446;13.900;2024-01-15T04:53:04;91345.94;;;-7.70;100.00
9738;BME280;4908;47.446;13.900;2024-01-15T04:55:31;91346.84;;;-7.57;100.00
9738;BME280;4908;47.446;13.900;2024-01-15T04:58:00;91349.91;;;-7.47;100.00
9738;BME280;4908;47.446;13.900;2024-01-15T05:00:27;91319.34;;;-7.41;100.00
9738;BME280;4908;47.446;13.900;2024-01-15T05:02:54;91352.78;;;-7.05;100.00
9738;BME280;4908;47.446;13.900;2024-01-15T05:05:21;91349.72;;;-7.07;100.00
9738;BME280;4908;47.446;13.900;2024-01-15T05:07:48;91339.63;;;-7.09;100.00
9738;BME280;4908;47.446;13.900;2024-01-15T05:10:15;91355.34;;;-6.97;100.00
9738;BME280;4908;47.446;13.900;2024-01-15T05:12:42;91353.53;;;-6.88;100.00
9738;BME280;4908;47.446;13.900;2024-01-15T05:15:11;91337.47;;;-6.90;100.00
9738;BME280;4908;47.446;13.900;2024-01-15T05:17:38;91361.53;;;-6.55;100.00
9738;BME280;4908;47.446;13.900;2024-01-15T05:20:06;91363.50;;;-6.44;100.00
9738;BME280;4908;47.446;13.900;2024-01-15T05:22:33;91355.56;;;-6.56;100.00
9738;BME280;4908;47.446;13.900;2024-01-15T05:25:00;91375.63;;;-6.18;100.00
9738;BME280;4908;47.446;13.900;2024-01-15T05:27:27;91370.34;;;-6.39;100.00
9738;BME280;4908;47.446;13.900;2024-01-15T05:29:54;91366.81;;;-6.34;100.00
9738;BME280;4908;47.446;13.900;2024-01-15T05:32:22;91381.09;;;-6.11;100.00
9738;BME280;4908;47.446;13.900;2024-01-15T05:34:49;91380.00;;;-6.39;100.00
9738;BME280;4908;47.446;13.900;2024-01-15T05:37:16;91383.91;;;-6.16;100.00
9738;BME280;4908;47.446;13.900;2024-01-15T05:39:43;91373.00;;;-6.48;100.00
9738;BME280;4908;47.446;13.900;2024-01-15T05:42:10;91374.66;;;-6.43;100.00
9738;BME280;4908;47.446;13.900;2024-01-15T05:44:37;91374.31;;;-6.33;100.00
9738;BME280;4908;47.446;13.900;2024-01-15T05:47:04;91375.72;;;-6.35;100.00
9738;BME280;4908;47.446;13.900;2024-01-15T05:49:33;91373.75;;;-6.09;100.00
9738;BME280;4908;47.446;13.900;2024-01-15T05:52:00;91375.78;;;-6.23;100.00
9738;BME280;4908;47.446;13.900;2024-01-15T05:54:27;91382.69;;;-6.27;100.00
9738;BME280;4908;47.446;13.900;2024-01-15T05:56:54;91387.56;;;-6.17;100.00
9738;BME280;4908;47.446;13.900;2024-01-15T05:59:21;91378.06;;;-6.13;100.00
9738;BME280;4908;47.446;13.900;2024-01-15T06:01:48;91372.03;;;-6.05;100.00
9738;BME280;4908;47.446;13.900;2024-01-15T06:04:15;91378.94;;;-5.80;100.00
9738;BME280;4908;47.446;13.900;2024-01-15T06:06:44;91378.13;;;-5.72;100.00
9738;BME280;4908;47.446;13.900;2024-01-15T06:09:11;91372.75;;;-5.96;100.00
9738;BME280;4908;47.446;13.900;2024-01-15T06:11:38;91386.75;;;-6.01;100.00
9738;BME280;4908;47.446;13.900;2024-01-15T06:14:05;91384.97;;;-5.88;100.00
9738;BME280;4908;47.446;13.900;2024-01-15T06:16:32;91380.66;;;-5.84;100.00
9738;BME280;4908;47.446;13.900;2024-01-15T06:18:59;91376.16;;;-5.75;100.00
9738;BME280;4908;47.446;13.900;2024-01-15T06:21:26;91383.06;;;-5.50;100.00
9738;BME280;4908;47.446;13.900;2024-01-15T06:23:54;91375.72;;;-5.57;100.00
9738;BME280;4908;47.446;13.900;2024-01-15T06:26:22;91376.66;;;-5.61;100.00
9738;BME280;4908;47.446;13.900;2024-01-15T06:28:49;91382.53;;;-5.64;100.00
9738;BME280;4908;47.446;13.900;2024-01-15T06:31:16;91384.13;;;-5.51;100.00
9738;BME280;4908;47.446;13.900;2024-01-15T06:33:43;91379.19;;;-5.44;100.00
9738;BME280;4908;47.446;13.900;2024-01-15T06:36:12;91383.88;;;-5.37;100.00
9738;BME280;4908;47.446;13.900;2024-01-15T06:38:39;91389.94;;;-5.25;100.00
9738;BME280;4908;47.446;13.900;2024-01-15T06:41:08;91390.63;;;-5.16;100.00
9738;BME280;4908;47.446;13.900;2024-01-15T06:43:35;91392.28;;;-5.11;100.00
9738;BME280;4908;47.446;13.900;2024-01-15T06:46:02;91386.53;;;-5.05;100.00
9738;BME280;4908;47.446;13.900;2024-01-15T06:48:29;91392.09;;;-5.27;100.00
9738;BME280;4908;47.446;13.900;2024-01-15T06:50:56;91392.91;;;-5.35;100.00
9738;BME280;4908;47.446;13.900;2024-01-15T06:53:23;91403.59;;;-5.28;100.00
9738;BME280;4908;47.446;13.900;2024-01-15T06:55:50;91397.84;;;-5.42;100.00
9738;BME280;4908;47.446;13.900;2024-01-15T06:58:19;91396.22;;;-5.47;100.00
9738;BME280;4908;47.446;13.900;2024-01-15T07:00:46;91394.94;;;-5.40;100.00
9738;BME280;4908;47.446;13.900;2024-01-15T07:03:13;91391.50;;;-5.32;100.00
9738;BME280;4908;47.446;13.900;2024-01-15T07:05:40;91398.00;;;-5.18;100.00
9738;BME280;4908;47.446;13.900;2024-01-15T07:08:07;91403.84;;;-5.21;100.00
9738;BME280;4908;47.446;13.900;2024-01-15T07:10:34;91402.84;;;-5.08;100.00
9738;BME280;4908;47.446;13.900;2024-01-15T07:13:01;91393.78;;;-4.90;100.00
9738;BME280;4908;47.446;13.900;2024-01-15T07:15:29;91390.53;;;-4.87;100.00
9738;BME280;4908;47.446;13.900;2024-01-15T07:17:56;91409.69;;;-4.83;100.00
9738;BME280;4908;47.446;13.900;2024-01-15T07:20:23;91411.34;;;-4.99;100.00
9738;BME280;4908;47.446;13.900;2024-01-15T07:22:50;91409.81;;;-5.00;100.00
9738;BME280;4908;47.446;13.900;2024-01-15T07:25:17;91404.34;;;-5.07;100.00
9738;BME280;4908;47.446;13.900;2024-01-15T07:27:44;91407.28;;;-5.08;100.00
9738;BME280;4908;47.446;13.900;2024-01-15T07:30:13;91411.66;;;-5.00;100.00
9738;BME280;4908;47.446;13.900;2024-01-15T07:32:41;91412.41;;;-4.79;100.00
9738;BME280;4908;47.446;13.900;2024-01-15T07:35:08;91404.22;;;-4.90;100.00
9738;BME280;4908;47.446;13.900;2024-01-15T07:37:35;91403.97;;;-4.97;100.00
9738;BME280;4908;47.446;13.900;2024-01-15T07:40:03;91400.72;;;-4.94;100.00
9738;BME280;4908;47.446;13.900;2024-01-15T07:42:32;91402.44;;;-4.98;100.00
9738;BME280;4908;47.446;13.900;2024-01-15T07:44:59;91395.41;;;-4.85;100.00
9738;BME280;4908;47.446;13.900;2024-01-15T07:47:26;91395.69;;;-4.78;100.00
9738;BME280;4908;47.446;13.900;2024-01-15T07:49:55;91397.56;;;-4.67;100.00
9738;BME280;4908;47.446;13.900;2024-01-15T07:52:22;91388.63;;;-4.66;100.00
9738;BME280;4908;47.446;13.900;2024-01-15T07:54:49;91380.19;;;-4.63;100.00
9738;BME280;4908;47.446;13.900;2024-01-15T07:57:16;91393.38;;;-4.47;100.00
9738;BME280;4908;47.446;13.900;2024-01-15T07:59:43;91394.38;;;-4.27;100.00
9738;BME280;4908;47.446;13.900;2024-01-15T08:02:10;91389.28;;;-4.24;100.00
9738;BME280;4908;47.446;13.900;2024-01-15T08:04:37;91399.59;;;-4.39;100.00
9738;BME280;4908;47.446;13.900;2024-01-15T08:07:06;91397.63;;;-4.42;100.00
9738;BME280;4908;47.446;13.900;2024-01-15T08:09:33;91389.34;;;-4.44;100.00
9738;BME280;4908;47.446;13.900;2024-01-15T08:12:00;91395.56;;;-4.37;100.00
9738;BME280;4908;47.446;13.900;2024-01-15T08:14:27;91395.69;;;-4.21;100.00
9738;BME280;4908;47.446;13.900;2024-01-15T08:16:54;91385.91;;;-4.24;100.00
9738;BME280;4908;47.446;13.900;2024-01-15T08:19:21;91394.06;;;-4.14;100.00
9738;BME280;4908;47.446;13.900;2024-01-15T08:21:48;91390.28;;;-4.16;100.00
9738;BME280;4908;47.446;13.900;2024-01-15T08:24:17;91400.41;;;-4.15;100.00
9738;BME280;4908;47.446;13.900;2024-01-15T08:26:44;91402.66;;;-4.25;100.00
9738;BME280;4908;47.446;13.900;2024-01-15T08:29:11;91393.84;;;-4.21;100.00
9738;BME280;4908;47.446;13.900;2024-01-15T08:31:38;91405.75;;;-3.99;100.00
9738;BME280;4908;47.446;13.900;2024-01-15T08:34:05;91396.81;;;-3.98;100.00
9738;BME280;4908;47.446;13.900;2024-01-15T08:36:32;91397.25;;;-4.08;100.00
9738;BME280;4908;47.446;13.900;2024-01-15T08:39:01;91398.31;;;-4.21;100.00
9738;BME280;4908;47.446;13.900;2024-01-15T08:41:32;91398.56;;;-4.14;100.00
9738;BME280;4908;47.446;13.900;2024-01-15T08:43:59;91393.13;;;-3.97;100.00
9738;BME280;4908;47.446;13.900;2024-01-15T08:46:26;91391.50;;;-3.78;100.00
9738;BME280;4908;47.446;13.900;2024-01-15T08:48:53;91389.44;;;-3.72;100.00
9738;BME280;4908;47.446;13.900;2024-01-15T08:51:20;91389.19;;;-3.67;100.00
9738;BME280;4908;47.446;13.900;2024-01-15T08:53:47;91389.19;;;-3.55;100.00
9738;BME280;4908;47.446;13.900;2024-01-15T08:56:14;91391.59;;;-3.50;100.00
9738;BME280;4908;47.446;13.900;2024-01-15T08:58:42;91390.03;;;-3.27;100.00
9738;BME280;4908;47.446;13.900;2024-01-15T09:01:11;91392.88;;;-3.32;100.00
9738;BME280;4908;47.446;13.900;2024-01-15T09:03:39;91387.00;;;-3.29;100.00
9738;BME280;4908;47.446;13.900;2024-01-15T09:06:08;91388.28;;;-3.23;100.00
9738;BME280;4908;47.446;13.900;2024-01-15T09:08:35;91390.44;;;-3.13;100.00
9738;BME280;4908;47.446;13.900;2024-01-15T09:11:02;91388.47;;;-3.04;100.00
9738;BME280;4908;47.446;13.900;2024-01-15T09:13:29;91389.31;;;-3.00;100.00
9738;BME280;4908;47.446;13.900;2024-01-15T09:15:58;91389.69;;;-2.86;100.00
9738;BME280;4908;47.446;13.900;2024-01-15T09:18:25;91383.56;;;-2.78;100.00
9738;BME280;4908;47.446;13.900;2024-01-15T09:20:52;91371.09;;;-2.68;100.00
9738;BME280;4908;47.446;13.900;2024-01-15T09:23:19;91384.13;;;-2.56;100.00
9738;BME280;4908;47.446;13.900;2024-01-15T09:25:46;91378.66;;;-2.51;100.00
9738;BME280;4908;47.446;13.900;2024-01-15T09:28:14;91378.41;;;-2.46;100.00
9738;BME280;4908;47.446;13.900;2024-01-15T09:30:41;91372.94;;;-2.41;100.00
9738;BME280;4908;47.446;13.900;2024-01-15T09:33:09;91371.00;;;-2.13;100.00
9738;BME280;4908;47.446;13.900;2024-01-15T09:35:36;91373.47;;;-2.05;100.00
9738;BME280;4908;47.446;13.900;2024-01-15T09:38:04;91374.13;;;-2.23;100.00
9738;BME280;4908;47.446;13.900;2024-01-15T09:40:31;91367.22;;;-2.31;100.00
9738;BME280;4908;47.446;13.900;2024-01-15T09:43:00;91363.91;;;-2.28;100.00
9738;BME280;4908;47.446;13.900;2024-01-15T09:45:28;91368.03;;;-2.27;100.00
9738;BME280;4908;47.446;13.900;2024-01-15T09:47:56;91369.56;;;-2.26;100.00
9738;BME280;4908;47.446;13.900;2024-01-15T09:50:24;91374.56;;;-2.21;100.00
9738;BME280;4908;47.446;13.900;2024-01-15T09:52:52;91370.41;;;-2.22;100.00
9738;BME280;4908;47.446;13.900;2024-01-15T09:55:19;91373.06;;;-2.07;100.00
9738;BME280;4908;47.446;13.900;2024-01-15T09:57:47;91368.25;;;-1.89;100.00
9738;BME280;4908;47.446;13.900;2024-01-15T10:00:17;91364.69;;;-1.81;100.00
9738;BME280;4908;47.446;13.900;2024-01-15T10:02:45;91356.88;;;-1.62;100.00
9738;BME280;4908;47.446;13.900;2024-01-15T10:05:12;91345.09;;;-1.52;100.00
9738;BME280;4908;47.446;13.900;2024-01-15T10:07:41;91340.91;;;-1.38;100.00
9738;BME280;4908;47.446;13.900;2024-01-15T10:10:08;91334.75;;;-1.45;100.00
9738;BME280;4908;47.446;13.900;2024-01-15T10:12:38;91341.84;;;-1.30;100.00
9738;BME280;4908;47.446;13.900;2024-01-15T10:15:06;91330.63;;;-1.27;100.00
9738;BME280;4908;47.446;13.900;2024-01-15T10:17:36;91328.72;;;-1.11;100.00
9738;BME280;4908;47.446;13.900;2024-01-15T10:20:08;91327.00;;;-0.84;100.00
9738;BME280;4908;47.446;13.900;2024-01-15T10:22:37;91320.63;;;-0.83;100.00
9738;BME280;4908;47.446;13.900;2024-01-15T10:25:10;91317.44;;;-0.73;100.00
9738;BME280;4908;47.446;13.900;2024-01-15T10:27:37;91318.66;;;-0.48;100.00
9738;BME280;4908;47.446;13.900;2024-01-15T10:30:05;91313.25;;;-0.36;100.00
9738;BME280;4908;47.446;13.900;2024-01-15T10:32:32;91325.72;;;-0.33;100.00
9738;BME280;4908;47.446;13.900;2024-01-15T10:34:59;91317.28;;;-0.42;100.00
9738;BME280;4908;47.446;13.900;2024-01-15T10:37:27;91315.25;;;-0.30;100.00
9738;BME280;4908;47.446;13.900;2024-01-15T10:39:54;91315.56;;;-0.12;100.00
9738;BME280;4908;47.446;13.900;2024-01-15T10:42:22;91307.63;;;-0.35;100.00
9738;BME280;4908;47.446;13.900;2024-01-15T10:44:49;91306.16;;;-0.55;100.00
9738;BME280;4908;47.446;13.900;2024-01-15T10:47:16;91299.59;;;-0.45;100.00
9738;BME280;4908;47.446;13.900;2024-01-15T10:49:45;91290.47;;;-0.51;100.00
9738;BME280;4908;47.446;13.900;2024-01-15T10:52:12;91279.84;;;-0.58;100.00
9738;BME280;4908;47.446;13.900;2024-01-15T10:54:41;91278.50;;;-0.26;100.00
9738;BME280;4908;47.446;13.900;2024-01-15T10:57:10;91277.50;;;-0.18;100.00
9738;BME280;4908;47.446;13.900;2024-01-15T10:59:40;91279.38;;;-0.19;100.00
9738;BME280;4908;47.446;13.900;2024-01-15T11:02:08;91278.59;;;-0.19;100.00
9738;BME280;4908;47.446;13.900;2024-01-15T11:04:36;91283.81;;;0.00;100.00
9738;BME280;4908;47.446;13.900;2024-01-15T11:07:05;91277.47;;;0.05;100.00
9738;BME280;4908;47.446;13.900;2024-01-15T11:09:32;91277.31;;;-0.06;100.00
9738;BME280;4908;47.446;13.900;2024-01-15T11:12:07;91270.44;;;-0.14;100.00
9738;BME280;4908;47.446;13.900;2024-01-15T11:14:34;91270.03;;;-0.16;100.00
9738;BME280;4908;47.446;13.900;2024-01-15T11:17:03;91268.31;;;-0.05;100.00
9738;BME280;4908;47.446;13.900;2024-01-15T11:19:37;91262.59;;;-0.11;100.00
9738;BME280;4908;47.446;13.900;2024-01-15T11:22:07;91263.28;;;-0.14;100.00
9738;BME280;4908;47.446;13.900;2024-01-15T11:24:38;91264.34;;;-0.18;100.00
9738;BME280;4908;47.446;13.900;2024-01-15T11:27:06;91260.66;;;-0.36;100.00
9738;BME280;4908;47.446;13.900;2024-01-15T11:29:34;91264.84;;;-0.35;100.00
9738;BME280;4908;47.446;13.900;2024-01-15T11:32:05;91267.91;;;-0.30;100.00
9738;BME280;4908;47.446;13.900;2024-01-15T11:34:58;91268.69;;;-0.29;100.00
9738;BME280;4908;47.446;13.900;2024-01-15T11:37:28;91279.47;;;-0.34;100.00
9738;BME280;4908;47.446;13.900;2024-01-15T11:40:01;91277.69;;;-0.30;100.00
9738;BME280;4908;47.446;13.900;2024-01-15T11:42:29;91278.50;;;-0.26;100.00
9738;BME280;4908;47.446;13.900;2024-01-15T11:44:57;91281.53;;;-0.24;100.00
9738;BME280;4908;47.446;13.900;2024-01-15T11:47:51;91282.34;;;-0.20;100.00
9738;BME280;4908;47.446;13.900;2024-01-15T11:50:27;91284.94;;;-0.24;100.00
9738;BME280;4908;47.446;13.900;2024-01-15T11:53:00;91283.91;;;-0.38;100.00
9738;BME280;4908;47.446;13.900;2024-01-15T11:55:30;91281.22;;;-0.19;100.00
9738;BME280;4908;47.446;13.900;2024-01-15T11:58:01;91291.47;;;-0.14;100.00
9738;BME280;4908;47.446;13.900;2024-01-15T12:00:29;91283.50;;;-0.40;100.00
9738;BME280;4908;47.446;13.900;2024-01-15T12:02:58;91284.03;;;-0.54;100.00
9738;BME280;4908;47.446;13.900;2024-01-15T12:05:27;91284.78;;;-0.53;100.00
9738;BME280;4908;47.446;13.900;2024-01-15T12:07:55;91282.97;;;-0.49;100.00
9738;BME280;4908;47.446;13.900;2024-01-15T12:10:22;91277.47;;;-0.41;100.00
9738;BME280;4908;47.446;13.900;2024-01-15T12:12:59;91278.97;;;-0.43;100.00
9738;BME280;4908;47.446;13.900;2024-01-15T12:15:28;91273.25;;;-0.49;100.00
9738;BME280;4908;47.446;13.900;2024-01-15T12:17:57;91269.66;;;-0.60;100.00
9738;BME280;4908;47.446;13.900;2024-01-15T12:20:25;91261.25;;;-0.46;100.00
9738;BME280;4908;47.446;13.900;2024-01-15T12:22:52;91253.34;;;-0.46;100.00
9738;BME280;4908;47.446;13.900;2024-01-15T12:25:20;91252.44;;;-0.57;100.00
9738;BME280;4908;47.446;13.900;2024-01-15T12:27:48;91252.38;;;-0.61;100.00
9738;BME280;4908;47.446;13.900;2024-01-15T12:30:15;91253.88;;;-0.60;100.00
9738;BME280;4908;47.446;13.900;2024-01-15T12:32:42;91258.56;;;-0.50;100.00
9738;BME280;4908;47.446;13.900;2024-01-15T12:35:11;91247.28;;;-0.50;100.00
9738;BME280;4908;47.446;13.900;2024-01-15T12:37:39;91248.09;;;-0.46;100.00
9738;BME280;4908;47.446;13.900;2024-01-15T12:40:08;91239.13;;;-0.45;100.00
9738;BME280;4908;47.446;13.900;2024-01-15T12:42:35;91241.75;;;-0.45;100.00
9738;BME280;4908;47.446;13.900;2024-01-15T12:45:03;91238.47;;;-0.39;100.00
9738;BME280;4908;47.446;13.900;2024-01-15T12:47:30;91240.25;;;-0.88;100.00
9738;BME280;4908;47.446;13.900;2024-01-15T12:49:58;91236.97;;;-0.62;100.00
9738;BME280;4908;47.446;13.900;2024-01-15T12:52:28;91245.78;;;-0.51;100.00
9738;BME280;4908;47.446;13.900;2024-01-15T12:54:56;91245.00;;;-0.52;100.00
9738;BME280;4908;47.446;13.900;2024-01-15T12:57:23;91240.97;;;-0.23;100.00
9738;BME280;4908;47.446;13.900;2024-01-15T12:59:50;91252.72;;;-0.40;100.00
9738;BME280;4908;47.446;13.900;2024-01-15T13:02:18;91258.66;;;-0.43;100.00